createdAt,value
2022-11-17T00:02:10.995Z,6.50
2022-11-17T00:04:59.293Z,6.60
2022-11-17T00:07:49.020Z,6.60
2022-11-17T00:10:37.401Z,6.60
2022-11-17T00:13:42.988Z,6.60
2022-11-17T00:16:31.305Z,6.50
2022-11-17T00:19:38.260Z,6.50
2022-11-17T00:22:26.658Z,6.50
2022-11-17T00:25:15.178Z,6.50
2022-11-17T00:28:03.512Z,6.50
2022-11-17T00:31:11.447Z,6.50
2022-11-17T00:34:05.842Z,6.40
2022-11-17T00:36:55.907Z,6.40
2022-11-17T00:39:44.292Z,6.40
2022-11-17T00:42:32.644Z,6.40
2022-11-17T00:45:20.961Z,6.50
2022-11-17T00:48:09.295Z,6.50
2022-11-17T00:50:57.673Z,6.50
2022-11-17T00:53:47.514Z,6.40
2022-11-17T00:56:35.846Z,6.40
2022-11-17T00:59:24.180Z,6.40
2022-11-17T01:02:12.771Z,6.40
2022-11-17T01:05:01.379Z,6.40
2022-11-17T01:07:49.677Z,6.40
2022-11-17T01:10:39.438Z,6.40
2022-11-17T01:13:27.789Z,6.40
2022-11-17T01:16:17.946Z,6.40
2022-11-17T01:19:06.276Z,6.40
2022-11-17T01:21:54.656Z,6.40
2022-11-17T01:24:43.028Z,6.40
2022-11-17T01:27:32.715Z,6.40
2022-11-17T01:30:21.817Z,6.40
2022-11-17T01:33:10.173Z,6.50
2022-11-17T01:36:02.618Z,6.50
2022-11-17T01:38:51.138Z,6.40
2022-11-17T01:41:39.420Z,6.30
2022-11-17T01:44:55.466Z,6.30
2022-11-17T01:47:48.189Z,6.30
2022-11-17T01:50:40.208Z,6.40
2022-11-17T01:53:30.693Z,6.30
2022-11-17T01:56:23.102Z,6.20
2022-11-17T01:59:19.843Z,6.20
2022-11-17T02:02:09.613Z,6.20
2022-11-17T02:05:03.286Z,6.20
2022-11-17T02:07:54.718Z,6.20
2022-11-17T02:10:50.179Z,6.10
2022-11-17T02:13:41.304Z,6.10
2022-11-17T02:16:29.664Z,6.10
2022-11-17T02:19:22.206Z,6.10
2022-11-17T02:22:34.657Z,6.10
2022-11-17T02:25:37.587Z,6.10
2022-11-17T02:28:29.109Z,6.10
2022-11-17T02:31:27.456Z,6.10
2022-11-17T02:34:26.960Z,6.00
2022-11-17T02:37:25.611Z,6.00
2022-11-17T02:40:23.056Z,6.10
2022-11-17T02:43:32.434Z,6.10
2022-11-17T02:46:25.444Z,6.00
2022-11-17T02:49:20.401Z,6.00
2022-11-17T02:52:10.287Z,6.00
2022-11-17T02:55:01.033Z,6.00
2022-11-17T02:57:49.935Z,5.90
2022-11-17T03:00:50.518Z,5.90
2022-11-17T03:03:56.515Z,5.80
2022-11-17T03:06:52.667Z,5.90
2022-11-17T03:09:49.702Z,5.80
2022-11-17T03:12:47.912Z,5.80
2022-11-17T03:15:45.979Z,5.80
2022-11-17T03:18:40.405Z,5.80
2022-11-17T03:21:33.625Z,5.80
2022-11-17T03:24:24.877Z,5.90
2022-11-17T03:27:17.967Z,5.90
2022-11-17T03:30:09.231Z,5.90
2022-11-17T03:33:02.246Z,5.90
2022-11-17T03:35:53.754Z,5.90
2022-11-17T03:38:48.248Z,5.80
2022-11-17T03:41:40.419Z,5.80
2022-11-17T03:44:33.878Z,5.70
2022-11-17T03:47:26.856Z,5.60
2022-11-17T03:50:19.918Z,5.60
2022-11-17T03:53:08.356Z,5.70
2022-11-17T03:56:04.086Z,5.60
2022-11-17T03:58:58.783Z,5.60
2022-11-17T04:01:47.338Z,5.60
2022-11-17T04:04:49.678Z,5.60
2022-11-17T04:07:41.161Z,5.60
2022-11-17T04:10:29.474Z,5.60
2022-11-17T04:13:36.901Z,5.50
2022-11-17T04:16:25.468Z,5.50
2022-11-17T04:19:13.760Z,5.60
2022-11-17T04:22:02.248Z,5.50
2022-11-17T04:24:50.557Z,5.50
2022-11-17T04:27:56.560Z,5.50
2022-11-17T04:30:46.258Z,5.50
2022-11-17T04:33:34.903Z,5.50
2022-11-17T04:36:25.300Z,5.50
2022-11-17T04:39:14.869Z,5.40
2022-11-17T04:42:04.826Z,5.40
2022-11-17T04:44:53.162Z,5.40
2022-11-17T04:47:42.842Z,5.40
2022-11-17T04:50:31.105Z,5.40
2022-11-17T04:53:19.425Z,5.30
2022-11-17T04:56:08.446Z,5.30
2022-11-17T04:58:57.193Z,5.30
2022-11-17T05:01:45.618Z,5.20
2022-11-17T05:04:52.988Z,5.20
2022-11-17T05:07:41.312Z,5.20
2022-11-17T05:10:43.591Z,5.20
2022-11-17T05:13:31.922Z,5.10
2022-11-17T05:16:38.512Z,5.10
2022-11-17T05:19:28.230Z,5.10
2022-11-17T05:22:37.231Z,5.00
2022-11-17T05:25:25.638Z,5.10
2022-11-17T05:28:14.093Z,5.00
2022-11-17T05:31:02.439Z,5.00
2022-11-17T05:33:50.806Z,5.00
2022-11-17T05:36:39.759Z,5.00
2022-11-17T05:39:29.425Z,5.00
2022-11-17T05:42:17.731Z,5.10
2022-11-17T05:45:06.934Z,5.00
2022-11-17T05:47:55.219Z,5.00
2022-11-17T05:50:43.677Z,5.00
2022-11-17T05:53:32.504Z,5.00
2022-11-17T05:56:36.569Z,5.00
2022-11-17T05:59:30.083Z,5.00
2022-11-17T06:02:23.597Z,5.00
2022-11-17T06:05:17.083Z,5.00
2022-11-17T06:08:08.649Z,5.10
2022-11-17T06:10:57.535Z,5.00
2022-11-17T06:13:47.290Z,5.00
2022-11-17T06:16:39.499Z,5.00
2022-11-17T06:19:31.502Z,5.00
2022-11-17T06:22:19.943Z,4.90
2022-11-17T06:25:10.585Z,4.90
2022-11-17T06:27:59.963Z,4.90
2022-11-17T06:30:50.486Z,5.00
2022-11-17T06:33:39.281Z,5.00
2022-11-17T06:36:27.628Z,5.00
2022-11-17T06:39:15.955Z,5.00
2022-11-17T06:42:04.423Z,5.10
2022-11-17T06:44:52.807Z,5.10
2022-11-17T06:47:42.476Z,5.00
2022-11-17T06:50:30.863Z,5.00
2022-11-17T06:53:19.456Z,5.00
2022-11-17T06:56:09.101Z,5.00
2022-11-17T06:58:59.042Z,5.00
2022-11-17T07:01:47.383Z,5.00
2022-11-17T07:04:37.878Z,5.00
2022-11-17T07:07:26.279Z,5.00
2022-11-17T07:10:14.648Z,5.00
2022-11-17T07:13:03.590Z,5.10
2022-11-17T07:15:52.536Z,5.10
2022-11-17T07:18:42.656Z,5.10
2022-11-17T07:21:32.396Z,5.20
2022-11-17T07:24:20.798Z,5.10
2022-11-17T07:27:09.093Z,5.10
2022-11-17T07:29:57.581Z,5.10
2022-11-17T07:32:49.467Z,5.10
2022-11-17T07:35:40.317Z,5.10
2022-11-17T07:38:32.440Z,5.20
2022-11-17T07:41:20.916Z,5.20
2022-11-17T07:44:09.360Z,5.20
2022-11-17T07:46:57.761Z,5.20
2022-11-17T07:49:46.102Z,5.20
2022-11-17T07:52:38.769Z,5.20
2022-11-17T07:55:31.185Z,5.20
2022-11-17T07:58:19.564Z,5.20
2022-11-17T08:01:08.896Z,5.20
2022-11-17T08:03:57.795Z,5.20
2022-11-17T08:06:46.340Z,5.20
2022-11-17T08:09:34.702Z,5.30
2022-11-17T08:12:24.646Z,5.30
2022-11-17T08:15:12.919Z,5.30
2022-11-17T08:18:02.045Z,5.20
2022-11-17T08:20:50.381Z,5.30
2022-11-17T08:23:38.947Z,5.30
2022-11-17T08:26:27.242Z,5.40
2022-11-17T08:29:17.175Z,5.40
2022-11-17T08:32:05.990Z,5.30
2022-11-17T08:34:54.419Z,5.40
2022-11-17T08:37:42.792Z,5.40
2022-11-17T08:40:31.140Z,5.40
2022-11-17T08:43:19.522Z,5.50
2022-11-17T08:46:12.394Z,5.50
2022-11-17T08:49:01.977Z,5.50
2022-11-17T08:51:50.290Z,5.50
2022-11-17T08:54:38.794Z,5.60
2022-11-17T08:57:27.140Z,5.60
2022-11-17T09:00:16.620Z,5.60
2022-11-17T09:03:08.862Z,5.60
2022-11-17T09:05:57.282Z,5.70
2022-11-17T09:08:47.461Z,5.70
2022-11-17T09:11:36.078Z,5.70
2022-11-17T09:14:24.466Z,5.70
2022-11-17T09:17:12.819Z,5.70
2022-11-17T09:20:02.503Z,5.60
2022-11-17T09:22:50.825Z,5.70
2022-11-17T09:25:39.925Z,5.70
2022-11-17T09:28:28.408Z,5.70
2022-11-17T09:31:19.059Z,5.70
2022-11-17T09:34:07.954Z,5.60
2022-11-17T09:36:57.752Z,5.60
2022-11-17T09:39:46.109Z,5.70
2022-11-17T09:42:39.989Z,5.70
2022-11-17T09:45:32.745Z,5.70
2022-11-17T09:48:40.737Z,5.70
2022-11-17T09:51:35.119Z,5.70
2022-11-17T09:54:31.334Z,5.60
2022-11-17T09:57:25.102Z,5.70
2022-11-17T10:00:16.595Z,5.70
2022-11-17T10:03:13.525Z,5.60
2022-11-17T10:06:05.377Z,5.60
2022-11-17T10:09:00.686Z,5.60
2022-11-17T10:11:50.401Z,5.80
2022-11-17T10:14:41.922Z,5.70
2022-11-17T10:17:30.759Z,5.70
2022-11-17T10:20:19.744Z,5.80
2022-11-17T10:23:11.504Z,5.70
2022-11-17T10:26:00.392Z,5.70
2022-11-17T10:29:08.993Z,5.70
2022-11-17T10:31:58.071Z,5.80
2022-11-17T10:34:47.260Z,5.80
2022-11-17T10:37:35.646Z,5.80
2022-11-17T10:40:26.465Z,5.80
2022-11-17T10:43:26.699Z,5.90
2022-11-17T10:46:17.709Z,5.80
2022-11-17T10:49:25.436Z,5.80
2022-11-17T10:52:18.319Z,5.70
2022-11-17T10:55:20.176Z,5.70
2022-11-17T10:58:21.266Z,5.80
2022-11-17T11:01:12.140Z,5.90
2022-11-17T11:04:02.365Z,5.90
2022-11-17T11:07:07.471Z,5.90
2022-11-17T11:10:03.979Z,5.90
2022-11-17T11:12:59.289Z,5.90
2022-11-17T11:15:48.097Z,5.80
2022-11-17T11:18:36.456Z,5.90
2022-11-17T11:21:41.545Z,5.80
2022-11-17T11:24:39.736Z,5.90
2022-11-17T11:27:38.647Z,5.90
2022-11-17T11:30:28.294Z,6.00
2022-11-17T11:33:27.628Z,6.00
2022-11-17T11:36:31.872Z,6.10
2022-11-17T11:39:32.147Z,6.10
2022-11-17T11:42:45.868Z,6.10
2022-11-17T11:45:52.157Z,6.00
2022-11-17T11:48:42.627Z,6.00
2022-11-17T11:51:38.994Z,6.00
2022-11-17T11:54:36.249Z,6.00
2022-11-17T11:57:33.785Z,5.90
2022-11-17T12:00:22.724Z,5.90
2022-11-17T12:03:21.321Z,5.90
2022-11-17T12:06:35.290Z,5.90
2022-11-17T12:10:00.168Z,6.00
2022-11-17T12:12:49.250Z,5.90
2022-11-17T12:15:38.342Z,6.00
2022-11-17T12:18:34.146Z,6.00
2022-11-17T12:21:25.026Z,6.00
2022-11-17T12:24:19.700Z,6.00
2022-11-17T12:27:43.067Z,5.90
2022-11-17T12:30:53.753Z,6.00
2022-11-17T12:34:14.278Z,6.00
2022-11-17T12:37:20.848Z,5.90
2022-11-17T12:40:31.027Z,6.00
2022-11-17T12:43:25.500Z,6.00
2022-11-17T12:46:27.272Z,5.90
2022-11-17T12:49:24.134Z,5.90
2022-11-17T12:52:20.872Z,5.90
2022-11-17T12:55:18.420Z,5.90
2022-11-17T12:58:19.156Z,5.90
2022-11-17T13:01:16.268Z,5.90
2022-11-17T13:04:11.541Z,5.80
2022-11-17T13:07:02.149Z,5.80
2022-11-17T13:09:53.109Z,5.90
2022-11-17T13:12:41.877Z,5.80
2022-11-17T13:15:30.703Z,5.90
2022-11-17T13:18:31.992Z,5.90
2022-11-17T13:21:30.051Z,5.90
2022-11-17T13:24:31.684Z,5.90
2022-11-17T13:27:24.713Z,5.90
2022-11-17T13:30:14.955Z,5.90
2022-11-17T13:33:04.731Z,6.00
2022-11-17T13:36:09.900Z,6.00
2022-11-17T13:39:00.522Z,6.00
2022-11-17T13:41:49.955Z,5.90
2022-11-17T13:44:38.839Z,6.00
2022-11-17T13:47:45.518Z,6.00
2022-11-17T13:50:37.173Z,6.00
2022-11-17T13:53:28.023Z,6.00
2022-11-17T13:56:27.122Z,6.00
2022-11-17T13:59:24.468Z,6.00
2022-11-17T14:02:29.134Z,5.90
2022-11-17T14:05:23.919Z,6.00
2022-11-17T14:08:15.010Z,6.00
2022-11-17T14:11:08.822Z,5.90
2022-11-17T14:14:03.304Z,6.00
2022-11-17T14:16:51.917Z,6.00
2022-11-17T14:19:40.760Z,6.00
2022-11-17T14:22:31.644Z,6.10
2022-11-17T14:25:20.670Z,6.10
2022-11-17T14:28:14.888Z,6.10
2022-11-17T14:31:03.433Z,6.10
2022-11-17T14:33:51.847Z,6.10
2022-11-17T14:36:41.086Z,6.10
2022-11-17T14:39:29.491Z,6.00
2022-11-17T14:42:17.936Z,6.00
2022-11-17T14:45:09.001Z,6.00
2022-11-17T14:47:57.495Z,6.00
2022-11-17T14:50:45.979Z,6.00
2022-11-17T14:53:36.833Z,6.00
2022-11-17T14:56:29.160Z,6.00
2022-11-17T14:59:18.117Z,6.00
2022-11-17T15:02:08.084Z,5.90
2022-11-17T15:04:59.029Z,6.00
2022-11-17T15:07:48.233Z,6.00
2022-11-17T15:10:36.743Z,6.00
2022-11-17T15:13:25.110Z,6.00
2022-11-17T15:16:13.623Z,6.00
2022-11-17T15:19:03.858Z,6.00
2022-11-17T15:21:52.790Z,6.00
2022-11-17T15:24:43.367Z,6.00
2022-11-17T15:27:31.954Z,6.00
2022-11-17T15:30:20.541Z,6.10
2022-11-17T15:33:08.857Z,6.10
2022-11-17T15:36:06.247Z,6.10
2022-11-17T15:38:54.665Z,6.00
2022-11-17T15:41:43.284Z,6.00
2022-11-17T15:44:31.662Z,6.00
2022-11-17T15:47:20.383Z,6.00
2022-11-17T15:50:10.843Z,6.00
2022-11-17T15:53:04.706Z,6.10
2022-11-17T15:55:53.882Z,6.10
2022-11-17T15:58:43.865Z,6.10
2022-11-17T16:01:33.804Z,6.10
2022-11-17T16:04:22.106Z,6.10
2022-11-17T16:07:10.538Z,6.10
2022-11-17T16:10:00.538Z,6.10
2022-11-17T16:12:49.767Z,6.10
2022-11-17T16:15:38.376Z,6.10
2022-11-17T16:18:26.940Z,6.10
2022-11-17T16:21:16.802Z,6.10
2022-11-17T16:24:05.465Z,6.00
2022-11-17T16:26:56.393Z,6.00
2022-11-17T16:29:45.663Z,6.00
2022-11-17T16:32:34.515Z,6.10
2022-11-17T16:35:23.049Z,6.10
2022-11-17T16:38:16.126Z,6.10
2022-11-17T16:41:08.832Z,6.10
2022-11-17T16:43:59.833Z,6.00
2022-11-17T16:46:49.927Z,6.00
2022-11-17T16:49:39.073Z,6.00
2022-11-17T16:52:27.774Z,6.00
2022-11-17T16:55:16.718Z,5.90
2022-11-17T16:58:06.041Z,5.90
2022-11-17T17:00:56.268Z,5.80
2022-11-17T17:03:45.482Z,5.80
2022-11-17T17:06:35.179Z,5.80
2022-11-17T17:09:27.875Z,5.90
2022-11-17T17:12:16.763Z,6.00
2022-11-17T17:15:06.457Z,6.00
2022-11-17T17:17:56.279Z,6.00
2022-11-17T17:20:51.928Z,6.00
2022-11-17T17:23:40.331Z,6.00
2022-11-17T17:26:30.372Z,5.90
2022-11-17T17:29:18.981Z,5.90
2022-11-17T17:32:07.548Z,5.90
2022-11-17T17:34:57.207Z,6.00
2022-11-17T17:37:45.554Z,5.90
2022-11-17T17:40:34.922Z,6.00
2022-11-17T17:43:23.323Z,6.00
2022-11-17T17:46:15.718Z,6.00
2022-11-17T17:49:04.855Z,6.00
2022-11-17T17:51:54.711Z,6.00
2022-11-17T17:54:43.022Z,6.00
2022-11-17T17:57:33.909Z,6.00
2022-11-17T18:00:24.915Z,6.00
2022-11-17T18:03:13.351Z,6.00
2022-11-17T18:06:02.125Z,6.00
2022-11-17T18:08:54.346Z,6.00
2022-11-17T18:11:46.166Z,5.90
2022-11-17T18:14:34.518Z,5.80
2022-11-17T18:17:25.744Z,5.80
2022-11-17T18:20:13.902Z,5.80
2022-11-17T18:23:02.367Z,5.90
2022-11-17T18:25:51.991Z,5.90
2022-11-17T18:28:40.666Z,5.90
2022-11-17T18:31:30.882Z,5.80
2022-11-17T18:34:21.776Z,5.80
2022-11-17T18:37:10.120Z,5.90
2022-11-17T18:39:58.466Z,5.90
2022-11-17T18:42:48.118Z,5.90
2022-11-17T18:45:38.363Z,5.80
2022-11-17T18:48:26.718Z,5.80
2022-11-17T18:51:19.826Z,5.80
2022-11-17T18:54:11.911Z,5.80
2022-11-17T18:57:02.298Z,5.90
2022-11-17T18:59:51.989Z,5.90
2022-11-17T19:02:40.330Z,5.90
2022-11-17T19:05:28.742Z,5.90
2022-11-17T19:08:17.110Z,5.90
2022-11-17T19:11:07.191Z,5.90
2022-11-17T19:13:55.596Z,5.90
2022-11-17T19:16:45.588Z,5.90
2022-11-17T19:19:33.929Z,5.90
2022-11-17T19:22:22.258Z,5.90
2022-11-17T19:25:10.826Z,5.90
2022-11-17T19:27:59.165Z,5.90
2022-11-17T19:30:47.471Z,5.90
2022-11-17T19:33:38.845Z,6.00
2022-11-17T19:36:29.457Z,6.00
2022-11-17T19:39:18.089Z,6.00
2022-11-17T19:42:07.412Z,5.90
2022-11-17T19:44:55.809Z,6.00
2022-11-17T19:47:44.246Z,6.00
2022-11-17T19:50:33.933Z,6.00
2022-11-17T19:53:22.392Z,5.90
2022-11-17T19:56:10.805Z,5.90
2022-11-17T19:58:59.580Z,5.80
2022-11-17T20:01:48.010Z,5.90
2022-11-17T20:04:36.365Z,5.90
2022-11-17T20:07:26.138Z,5.90
2022-11-17T20:10:14.515Z,5.90
2022-11-17T20:13:02.912Z,5.80
2022-11-17T20:15:57.203Z,5.90
2022-11-17T20:18:50.291Z,5.80
2022-11-17T20:21:38.615Z,5.80
2022-11-17T20:24:28.366Z,5.80
2022-11-17T20:27:16.647Z,5.90
2022-11-17T20:30:05.622Z,5.90
2022-11-17T20:32:53.981Z,6.00
2022-11-17T20:35:42.302Z,6.00
2022-11-17T20:38:30.734Z,6.00
2022-11-17T20:41:21.122Z,6.00
2022-11-17T20:44:23.835Z,6.00
2022-11-17T20:47:12.695Z,6.00
2022-11-17T20:50:01.017Z,5.90
2022-11-17T20:52:49.397Z,6.00
2022-11-17T20:55:38.539Z,6.10
2022-11-17T20:58:29.172Z,6.00
2022-11-17T21:01:19.749Z,6.00
2022-11-17T21:04:08.134Z,5.90
2022-11-17T21:06:56.529Z,6.00
2022-11-17T21:09:44.940Z,6.10
2022-11-17T21:12:33.936Z,6.10
2022-11-17T21:15:23.648Z,6.10
2022-11-17T21:18:27.725Z,6.10
2022-11-17T21:21:17.080Z,6.10
2022-11-17T21:24:06.043Z,6.20
2022-11-17T21:26:54.639Z,6.20
2022-11-17T21:29:43.000Z,6.20
2022-11-17T21:32:32.837Z,6.20
2022-11-17T21:35:21.519Z,6.20
2022-11-17T21:38:11.085Z,6.20
2022-11-17T21:41:03.361Z,6.20
2022-11-17T21:43:53.382Z,6.20
2022-11-17T21:46:41.756Z,6.20
2022-11-17T21:49:31.431Z,6.20
2022-11-17T21:52:19.792Z,6.20
2022-11-17T21:55:11.280Z,6.20
2022-11-17T21:57:59.613Z,6.10
2022-11-17T22:00:47.975Z,6.10
2022-11-17T22:03:36.786Z,6.00
2022-11-17T22:06:27.442Z,6.10
2022-11-17T22:09:16.238Z,6.10
2022-11-17T22:12:04.981Z,6.10
2022-11-17T22:14:53.361Z,6.00
2022-11-17T22:17:41.702Z,6.00
2022-11-17T22:20:30.123Z,6.00
2022-11-17T22:23:19.818Z,6.00
2022-11-17T22:26:08.099Z,6.10
2022-11-17T22:28:57.179Z,6.10
2022-11-17T22:31:46.245Z,6.10
2022-11-17T22:34:34.551Z,6.00
2022-11-17T22:37:22.793Z,6.00
2022-11-17T22:40:12.997Z,5.80
2022-11-17T22:43:04.456Z,5.80
2022-11-17T22:45:53.242Z,5.80
2022-11-17T22:48:41.556Z,5.80
2022-11-17T22:51:47.350Z,5.80
2022-11-17T22:54:36.112Z,5.90
2022-11-17T22:57:25.799Z,5.90
2022-11-17T23:00:15.295Z,5.90
2022-11-17T23:03:03.690Z,5.90
2022-11-17T23:05:52.072Z,5.90
2022-11-17T23:08:40.460Z,5.80
2022-11-17T23:11:37.046Z,5.90
2022-11-17T23:14:28.765Z,5.80
2022-11-17T23:17:17.241Z,5.80
2022-11-17T23:20:06.347Z,5.80
2022-11-17T23:22:54.893Z,5.80
2022-11-17T23:25:43.296Z,5.80
2022-11-17T23:28:32.121Z,5.80
2022-11-17T23:31:21.989Z,5.80
2022-11-17T23:34:10.976Z,5.80
2022-11-17T23:37:03.523Z,5.80
2022-11-17T23:39:52.339Z,5.80
2022-11-17T23:42:43.279Z,5.80
2022-11-17T23:45:31.591Z,5.80
2022-11-17T23:48:21.284Z,5.80
2022-11-17T23:51:11.578Z,5.70
2022-11-17T23:54:01.205Z,5.70
2022-11-17T23:56:53.181Z,5.60
2022-11-17T23:59:41.566Z,5.60
